Uvalde Research's Hourly Summary for Wednesday, February 15, 2017
Hour Temp
(f)
RH
(%)
Solar Rad.
(MJ/m2)
Rainfall
(in)
Wind
(mph)
2/15/2017 12:00 AM 51 60 0 0 4.59
2/15/2017 1:00 AM 50 60 0 0 3.38
2/15/2017 2:00 AM 48 63 0 0 4.29
2/15/2017 3:00 AM 47 65 0 0 3.69
2/15/2017 4:00 AM 46 66 0 0 1.65
2/15/2017 5:00 AM 44 72 0 0 1.86
2/15/2017 6:00 AM 43 77 0 0 1.31
2/15/2017 7:00 AM 42 79 0 0 0.56
2/15/2017 8:00 AM 41 81 0.09 0 1.53
2/15/2017 9:00 AM 44 76 0.55 0 2.86
2/15/2017 10:00 AM 50 60 1.43 0 3.17
2/15/2017 11:00 AM 53 49 1.43 0 2.92
2/15/2017 12:00 PM 58 37 2.29 0 3.11
2/15/2017 1:00 PM 59 34 2.46 0 2.98
2/15/2017 2:00 PM 61 32 2.42 0 2.11
2/15/2017 3:00 PM 62 29 2.19 0 2.33
2/15/2017 4:00 PM 63 26 1.75 0 2.53
2/15/2017 5:00 PM 64 27 1.17 0 2.2
2/15/2017 6:00 PM 63 28 0.37 0 1.83
2/15/2017 7:00 PM 60 34 0.02 0 0.47
2/15/2017 8:00 PM 56 43 0 0 0.03
2/15/2017 9:00 PM 54 47 0 0 0.08
2/15/2017 10:00 PM 52 52 0 0 0.09
2/15/2017 11:00 PM 50 56 0 0 0.67
Data Summary 52 52 16.17 0.00 2.09